Terminal Aerodrome Forecast
Issued by NWS

Current Version | Previous Version | Text Only | Print | Product List | Glossary On
Versions: 1 2 3 4 5 6 7 8 9 10 11 12 13 14 15 16 17 18 19 20 21 22 23 24 25 26 27 28 29 30 31 32 33
000
FTUS42 KCAE 290240 AAA
TAFDNL
TAF AMD
KDNL 290240Z 2903/2924 17006KT P6SM SCT060
     FM290600 VRB04KT P6SM SCT250
     FM291400 11007KT P6SM SCT030
     FM291800 13012KT P6SM SCT050=

USA.gov is the U.S. government's official web portal to all federal, state and local government web resources and services.